Airfield :
LOGIN :

Register | Disclaimer

   EN    FR    IT 

 










Legend :    VFR   Marginal VFR   IFR   Intensive IFR   Very Intensive IFR
Visi :
Ceiling :
>= 8 km
>= 3000ft
5 to 8 km
1000 to 3000 ft
1500m to 5 km
500 to 1000 ft
800 to 1500m
200 to 500 ft
< 800m
< 200 ft
Symbols :   Thunderstorms  Fog  Heavy snow  Heavy precipitations  Wind > 20 kt
SIGMETs :     Misc.  Thunderstorms  Icing  Turbulence  Mountain Waves  Volcanic Ashes







- Airport Elevation : 776 ft
- IATA code : RMS


ETAR - Ramstein Air Base

CURRENT METAR :
  • 132156Z 03011KT 9999 OVC033 00/M03 A3003 RMK AO2A SLP186 $

EXPIRED METARs :
  • 132056Z 02011KT 9999 OVC038 00/M04 A3003 RMK AO2A SLP186 53005 $
  • 131956Z 03010KT 9999 OVC040 00/M04 A3002 RMK AO2A SLP185 T0001 $

TAF TAF ETAR
Valid from the 13 at 18:00 until the 15 at 00:00 UTC


131813Z 1318/1424 06009KT 9999 SCT010 BKN020 620208 QNH3001INS
BECMG 1400/1401 06009KT 9999 SCT010 BKN017 620208 QNH3003INS
BECMG 1414/1415 07009KT 9999 SCT010 BKN020 620208QNH3013INS
BECMG 1417/1418 08006KT 9999 SCT009 BKN015 620208 QNH3020INS TX03/1415Z TNM02/1403Z
No reported NOTAMs for that airfield.



MET'MAP, your aeronautical weather chart ! - Copyright ORBIFLY December 2007 - Disclaimer

ORBIFLY MET'MAP TEAM :

Programming & Development : Alexandra Zaïnal
Concept & Development : Baudouin d'Aumeries
Co-Development & Prog : Marc-Olivier Méhu
Technical & hardware support : Manuel Goepfert

Contact : metmap@orbifly.com




SOURCES & CREDITS :

   NOAA